Terminal Aerodrome Forecast
Issued by NWS Blacksburg, VA

Current Version | Previous Version | Text Only | Print | Product List | Glossary Off
Versions: 1 2 3 4 5 6 7 8 9 10 11 12 13 14 15 16 17 18 19 20 21 22 23 24 25 26

000
FTUS41 KRNK 240531
TAFBLF
TAF
KBLF 240531Z 2406/2506 13004KT P6SM -RA OVC010 WS020/20040KT
     FM241200 16010G20KT 4SM -RA BR OVC004
     FM242000 19011KT 5SM -SHRA BR OVC007
     FM250100 25010KT P6SM -RA SCT005 OVC015=

USA.gov is the U.S. government's official web portal to all federal, state and local government web resources and services.